Time;durP1;ratioP1;P1;durP2;ratioP2;P2;SDS_P1;SDS_P2;PMS_P1;PMS_P2;Temp;Humidity;BMP_temperature;BMP_pressure;BME280_temperature;BME280_humidity;BME280_pressure;Samples;Min_cycle;Max_cycle;Signal;HPM_P1;HPM_P2
2022/03/21 00:01:05;;;;;;;47.08;23.48;;;;;;;;;;4990018;28;20082;-80
2022/03/21 00:03:32;;;;;;;49.15;24.25;;;;;;;;;;4989827;28;20046;-80
2022/03/21 00:05:59;;;;;;;51.83;26.05;;;;;;;;;;4990146;28;20110;-80
2022/03/21 00:08:25;;;;;;;56.20;24.85;;;;;;;;;;4993531;28;20063;-80
2022/03/21 00:10:52;;;;;;;52.53;26.08;;;;;;;;;;5011485;28;20097;-80
2022/03/21 00:13:19;;;;;;;46.88;24.55;;;;;;;;;;4986029;28;20570;-80
2022/03/21 00:15:46;;;;;;;50.17;25.20;;;;;;;;;;4993468;28;20059;-81
2022/03/21 00:18:14;;;;;;;48.08;24.50;;;;;;;;;;4993101;28;20063;-81
2022/03/21 00:20:45;;;;;;;47.38;24.30;;;;;;;;;;4992386;28;20067;-79
2022/03/21 00:23:11;;;;;;;;;;;;;;;;;;4992016;28;20062;-80
2022/03/21 00:25:38;;;;;;;49.30;24.58;;;;;;;;;;4974195;28;45035;-80
2022/03/21 00:28:05;;;;;;;50.78;25.65;;;;;;;;;;4993004;28;20054;-80
2022/03/21 00:30:32;;;;;;;50.05;25.83;;;;;;;;;;4990329;28;20113;-79
2022/03/21 00:32:58;;;;;;;51.03;26.02;;;;;;;;;;4991230;28;20054;-80
2022/03/21 00:35:25;;;;;;;51.17;26.02;;;;;;;;;;4993892;28;20530;-79
2022/03/21 00:37:52;;;;;;;54.60;26.58;;;;;;;;;;4992714;28;20173;-79
2022/03/21 00:40:18;;;;;;;49.78;25.25;;;;;;;;;;4992535;28;20082;-80
2022/03/21 00:42:46;;;;;;;51.42;26.33;;;;;;;;;;4992085;28;20694;-80
2022/03/21 00:45:17;;;;;;;55.75;26.15;;;;;;;;;;4993040;28;20059;-80
2022/03/21 00:47:44;;;;;;;52.38;27.20;;;;;;;;;;4988409;28;20052;-80
2022/03/21 00:50:12;;;;;;;53.05;27.08;;;;;;;;;;4993267;28;20047;-81
2022/03/21 00:52:39;;;;;;;54.85;26.58;;;;;;;;;;4991604;28;20458;-80
2022/03/21 00:55:06;;;;;;;51.78;25.85;;;;;;;;;;4992875;28;20059;-80
2022/03/21 00:57:34;;;;;;;50.17;26.00;;;;;;;;;;4994917;28;20055;-80
2022/03/21 01:00:02;;;;;;;51.45;25.73;;;;;;;;;;4994424;28;20121;-80
2022/03/21 01:02:28;;;;;;;53.78;25.85;;;;;;;;;;4992343;28;20590;-79
2022/03/21 01:04:55;;;;;;;55.40;26.60;;;;;;;;;;4993811;28;20062;-80
2022/03/21 01:07:21;;;;;;;53.00;26.45;;;;;;;;;;4993302;28;20063;-80
2022/03/21 01:09:48;;;;;;;53.15;26.95;;;;;;;;;;4991983;28;20062;-80
2022/03/21 01:12:14;;;;;;;52.38;26.20;;;;;;;;;;4994681;28;20106;-80
2022/03/21 01:14:41;;;;;;;57.22;26.88;;;;;;;;;;4989129;28;20051;-80
2022/03/21 01:17:07;;;;;;;60.17;27.42;;;;;;;;;;4984156;28;20059;-80
2022/03/21 01:19:34;;;;;;;60.85;29.75;;;;;;;;;;4988460;28;20059;-80
2022/03/21 01:22:00;;;;;;;57.38;27.50;;;;;;;;;;5009852;28;20043;-79
2022/03/21 01:24:26;;;;;;;55.75;28.48;;;;;;;;;;4996041;28;20086;-80
2022/03/21 01:26:53;;;;;;;57.42;27.90;;;;;;;;;;4993386;28;20082;-80
2022/03/21 01:29:20;;;;;;;56.67;27.58;;;;;;;;;;4992843;28;20062;-80
2022/03/21 01:31:46;;;;;;;56.92;27.13;;;;;;;;;;4993552;28;20047;-80
2022/03/21 01:34:12;;;;;;;55.90;28.52;;;;;;;;;;4992553;28;20067;-80
2022/03/21 01:36:39;;;;;;;54.92;27.55;;;;;;;;;;5004568;28;20570;-80
2022/03/21 01:39:05;;;;;;;58.05;28.55;;;;;;;;;;4974998;28;20051;-80
2022/03/21 01:41:31;;;;;;;58.08;27.65;;;;;;;;;;4983555;28;20110;-80
2022/03/21 01:44:03;;;;;;;57.47;27.23;;;;;;;;;;4993643;28;20062;-80
2022/03/21 01:46:29;;;;;;;57.47;27.08;;;;;;;;;;4993623;28;20059;-80
2022/03/21 01:48:56;;;;;;;56.03;27.38;;;;;;;;;;4994650;28;20141;-80
2022/03/21 01:51:24;;;;;;;56.05;27.85;;;;;;;;;;4991597;28;20585;-80
2022/03/21 01:56:36;;;;;;;64.65;29.67;;;;;;;;;;4975565;28;20047;-80
2022/03/21 01:59:04;;;;;;;62.28;29.77;;;;;;;;;;4973501;28;20072;-80
2022/03/21 02:01:30;;;;;;;61.58;30.00;;;;;;;;;;4983008;28;20062;-80
2022/03/21 02:03:57;;;;;;;60.65;29.48;;;;;;;;;;4991500;28;20086;-79
2022/03/21 02:06:25;;;;;;;63.83;31.13;;;;;;;;;;4993096;28;20113;-80
2022/03/21 02:08:52;;;;;;;71.13;33.42;;;;;;;;;;4989156;28;20606;-80
2022/03/21 02:11:19;;;;;;;76.00;31.95;;;;;;;;;;4982817;28;20920;-80
2022/03/21 02:13:46;;;;;;;65.63;31.20;;;;;;;;;;4994277;28;20063;-81
2022/03/21 02:16:12;;;;;;;67.25;33.25;;;;;;;;;;4993096;28;20105;-81
2022/03/21 02:18:40;;;;;;;68.38;32.75;;;;;;;;;;4992993;28;20059;-80
2022/03/21 02:21:09;;;;;;;69.55;31.77;;;;;;;;;;4992029;28;20058;-81
2022/03/21 02:23:41;;;;;;;59.08;28.42;;;;;;;;;;4991988;28;20116;-80
2022/03/21 02:26:07;;;;;;;58.50;28.90;;;;;;;;;;4993430;28;20054;-81
2022/03/21 02:28:34;;;;;;;61.25;28.90;;;;;;;;;;4981000;28;20518;-81
2022/03/21 02:31:01;;;;;;;57.92;28.27;;;;;;;;;;4976006;28;20061;-80
2022/03/21 02:33:28;;;;;;;54.72;25.70;;;;;;;;;;4993159;28;20067;-80
2022/03/21 02:35:54;;;;;;;53.72;27.17;;;;;;;;;;4992678;28;20525;-80
2022/03/21 02:38:21;;;;;;;53.88;25.27;;;;;;;;;;4994788;28;20121;-79
2022/03/21 02:40:48;;;;;;;51.17;25.60;;;;;;;;;;4991262;28;20050;-80
2022/03/21 02:43:15;;;;;;;55.85;26.92;;;;;;;;;;4992143;28;20142;-80
2022/03/21 02:45:41;;;;;;;52.42;25.90;;;;;;;;;;4980526;28;20051;-80
2022/03/21 02:48:08;;;;;;;55.03;26.25;;;;;;;;;;4992881;28;20086;-80
2022/03/21 02:50:34;;;;;;;60.22;27.30;;;;;;;;;;4992051;28;20062;-81
2022/03/21 02:53:01;;;;;;;55.33;26.10;;;;;;;;;;4993952;28;20054;-80
2022/03/21 02:55:28;;;;;;;55.25;27.00;;;;;;;;;;4993752;28;20047;-81
2022/03/21 02:57:54;;;;;;;53.85;26.73;;;;;;;;;;4993628;28;20098;-81
2022/03/21 03:00:20;;;;;;;52.67;26.52;;;;;;;;;;4993227;28;20067;-80
2022/03/21 03:02:47;;;;;;;58.95;27.65;;;;;;;;;;4994733;28;20156;-80
2022/03/21 03:05:13;;;;;;;50.22;26.02;;;;;;;;;;4993930;28;20105;-81
2022/03/21 03:07:40;;;;;;;54.88;26.33;;;;;;;;;;4991072;28;20604;-81
2022/03/21 03:10:06;;;;;;;54.22;26.73;;;;;;;;;;4990126;28;20051;-79
2022/03/21 03:12:33;;;;;;;51.15;25.05;;;;;;;;;;4989848;28;20112;-80
2022/03/21 03:14:59;;;;;;;49.47;25.00;;;;;;;;;;4993279;28;20482;-80
2022/03/21 03:17:25;;;;;;;52.40;25.20;;;;;;;;;;4986801;28;20055;-80
2022/03/21 03:19:52;;;;;;;50.17;25.75;;;;;;;;;;4973467;28;20055;-80
2022/03/21 03:22:19;;;;;;;54.45;26.33;;;;;;;;;;4975553;28;20526;-80
2022/03/21 03:24:45;;;;;;;52.05;25.73;;;;;;;;;;4991560;28;20696;-80
2022/03/21 03:27:12;;;;;;;53.83;27.38;;;;;;;;;;4995792;28;20059;-80
2022/03/21 03:29:38;;;;;;;58.40;27.42;;;;;;;;;;4991990;28;20039;-80
2022/03/21 03:32:05;;;;;;;53.58;26.67;;;;;;;;;;4991119;28;20114;-80
2022/03/21 03:34:32;;;;;;;54.60;26.85;;;;;;;;;;4991805;28;20059;-81
2022/03/21 03:36:58;;;;;;;52.20;27.27;;;;;;;;;;4991290;28;20053;-80
2022/03/21 03:39:25;;;;;;;59.90;28.52;;;;;;;;;;4990347;28;20081;-80
2022/03/21 03:41:52;;;;;;;54.42;27.30;;;;;;;;;;4993714;28;20095;-80
2022/03/21 03:44:18;;;;;;;58.90;28.83;;;;;;;;;;4994339;28;20056;-80
2022/03/21 03:46:44;;;;;;;57.20;27.95;;;;;;;;;;4991053;28;20051;-81
2022/03/21 03:49:11;;;;;;;55.05;26.55;;;;;;;;;;4991791;28;20086;-80
2022/03/21 03:51:37;;;;;;;55.63;27.13;;;;;;;;;;4990393;28;20046;-80
2022/03/21 03:54:04;;;;;;;53.92;27.27;;;;;;;;;;4987128;28;20051;-80
2022/03/21 03:56:30;;;;;;;54.40;26.75;;;;;;;;;;4991886;28;20051;-80
2022/03/21 03:58:56;;;;;;;54.78;26.58;;;;;;;;;;4990660;28;20055;-80
2022/03/21 04:01:23;;;;;;;62.70;27.48;;;;;;;;;;4990474;28;20055;-79
2022/03/21 04:03:49;;;;;;;60.00;28.23;;;;;;;;;;4990316;28;20050;-80
2022/03/21 04:06:17;;;;;;;56.20;27.38;;;;;;;;;;4992591;28;20043;-80
2022/03/21 04:08:44;;;;;;;59.42;29.02;;;;;;;;;;4990183;28;20061;-80
2022/03/21 04:11:11;;;;;;;57.97;28.08;;;;;;;;;;4989681;28;20055;-81
2022/03/21 04:13:37;;;;;;;59.00;27.77;;;;;;;;;;4989940;28;20118;-80
2022/03/21 04:16:04;;;;;;;56.58;28.38;;;;;;;;;;4990213;28;20960;-80
2022/03/21 04:18:30;;;;;;;60.67;28.83;;;;;;;;;;4990369;28;20055;-80
2022/03/21 04:21:17;;;;;;;53.75;26.13;;;;;;;;;;4978195;28;20546;-81
2022/03/21 04:23:43;;;;;;;53.67;26.27;;;;;;;;;;4991127;28;20055;-81
2022/03/21 04:26:11;;;;;;;53.53;26.95;;;;;;;;;;4990088;28;20553;-80
2022/03/21 04:28:38;;;;;;;58.85;28.42;;;;;;;;;;5005248;28;20055;-80
2022/03/21 04:31:05;;;;;;;63.42;28.92;;;;;;;;;;4990418;28;20046;-81
2022/03/21 04:33:31;;;;;;;64.32;29.95;;;;;;;;;;4988909;28;20101;-80
2022/03/21 04:35:58;;;;;;;58.55;28.10;;;;;;;;;;5003128;28;20058;-81
2022/03/21 04:38:24;;;;;;;59.03;28.20;;;;;;;;;;5009315;28;20502;-81
2022/03/21 04:40:51;;;;;;;62.83;29.55;;;;;;;;;;5005071;28;20545;-81
2022/03/21 04:43:18;;;;;;;62.10;29.52;;;;;;;;;;4990018;28;20058;-80
2022/03/21 04:45:46;;;;;;;56.83;28.00;;;;;;;;;;4993544;28;20058;-80
2022/03/21 04:48:12;;;;;;;56.38;28.55;;;;;;;;;;4990979;28;20051;-80
2022/03/21 04:50:39;;;;;;;63.38;30.38;;;;;;;;;;4989121;28;20065;-81
2022/03/21 04:53:06;;;;;;;62.63;29.30;;;;;;;;;;4991208;28;20118;-80
2022/03/21 04:55:32;;;;;;;61.80;28.58;;;;;;;;;;4989185;28;20087;-81
2022/03/21 04:58:00;;;;;;;55.28;28.55;;;;;;;;;;4987079;28;20881;-80
2022/03/21 05:00:26;;;;;;;64.35;28.35;;;;;;;;;;4990772;28;20059;-81
2022/03/21 05:02:53;;;;;;;56.83;27.00;;;;;;;;;;4992474;28;20055;-81
2022/03/21 05:05:19;;;;;;;61.90;27.67;;;;;;;;;;4992968;28;20051;-79
2022/03/21 05:07:46;;;;;;;55.50;27.13;;;;;;;;;;5008711;28;20103;-81
2022/03/21 05:10:14;;;;;;;51.67;26.73;;;;;;;;;;4992788;28;20063;-79
2022/03/21 05:12:40;;;;;;;56.33;27.13;;;;;;;;;;4992102;28;20425;-80
2022/03/21 05:15:07;;;;;;;58.50;27.40;;;;;;;;;;4992131;28;20110;-81
2022/03/21 05:17:37;;;;;;;59.35;27.10;;;;;;;;;;4992784;28;20063;-81
2022/03/21 05:20:22;;;;;;;57.53;27.17;;;;;;;;;;4993434;28;20054;-80
2022/03/21 05:31:22;;;;;;;54.13;25.92;;;;;;;;;;4991834;28;20218;-80
2022/03/21 05:36:34;;;;;;;55.55;26.75;;;;;;;;;;4992981;28;20142;-78
2022/03/21 05:39:00;;;;;;;54.22;26.45;;;;;;;;;;4994610;28;20058;-78
2022/03/21 05:41:27;;;;;;;58.58;28.15;;;;;;;;;;4994751;28;20564;-80
2022/03/21 05:43:53;;;;;;;59.03;28.80;;;;;;;;;;5000689;28;20039;-81
2022/03/21 05:46:20;;;;;;;58.92;27.50;;;;;;;;;;4995579;28;20454;-79
2022/03/21 05:48:59;;;;;;;57.65;26.17;;;;;;;;;;4994682;28;20106;-79
2022/03/21 05:51:34;;;;;;;59.92;28.92;;;;;;;;;;4993927;28;20110;-79
2022/03/21 05:54:03;;;;;;;58.22;26.85;;;;;;;;;;4995578;28;20094;-80
2022/03/21 05:56:29;;;;;;;63.63;27.92;;;;;;;;;;4993559;28;20046;-80
2022/03/21 05:58:58;;;;;;;56.05;26.77;;;;;;;;;;4994318;28;20059;-81
2022/03/21 06:01:24;;;;;;;59.40;27.63;;;;;;;;;;5029999;28;20108;-79
2022/03/21 06:03:52;;;;;;;58.70;27.95;;;;;;;;;;4993835;28;20090;-80
2022/03/21 06:06:20;;;;;;;54.20;26.63;;;;;;;;;;4994720;28;20485;-79
2022/03/21 06:08:47;;;;;;;64.15;28.15;;;;;;;;;;4993848;28;20059;-79
2022/03/21 06:11:13;;;;;;;60.65;26.88;;;;;;;;;;4994004;28;20047;-79
2022/03/21 06:13:42;;;;;;;56.53;27.05;;;;;;;;;;5016190;28;20054;-78
2022/03/21 06:16:09;;;;;;;59.00;27.20;;;;;;;;;;5000469;28;20121;-79
2022/03/21 06:18:36;;;;;;;55.60;25.63;;;;;;;;;;5010333;28;20080;-79
2022/03/21 06:21:03;;;;;;;60.78;28.10;;;;;;;;;;4993099;28;20576;-79
2022/03/21 06:23:30;;;;;;;57.03;27.13;;;;;;;;;;4993414;28;20699;-79
2022/03/21 06:25:58;;;;;;;61.58;27.67;;;;;;;;;;4994298;28;20078;-78
2022/03/21 06:28:25;;;;;;;71.10;27.85;;;;;;;;;;4993645;28;20082;-79
2022/03/21 06:30:53;;;;;;;62.42;28.70;;;;;;;;;;4992569;28;20158;-79
2022/03/21 06:33:20;;;;;;;55.67;26.52;;;;;;;;;;4994294;28;20054;-79
2022/03/21 06:35:47;;;;;;;60.17;26.60;;;;;;;;;;4994169;28;20160;-79
2022/03/21 06:38:14;;;;;;;59.25;27.88;;;;;;;;;;4993123;28;20053;-79
2022/03/21 06:40:41;;;;;;;58.33;27.85;;;;;;;;;;4995414;28;20566;-78
2022/03/21 06:43:07;;;;;;;61.97;28.85;;;;;;;;;;4998230;28;20079;-80
2022/03/21 06:45:34;;;;;;;63.88;28.88;;;;;;;;;;4999786;28;20106;-80
2022/03/21 06:48:00;;;;;;;59.00;27.90;;;;;;;;;;4992863;28;20061;-79
2022/03/21 06:50:27;;;;;;;60.92;28.33;;;;;;;;;;4992884;28;20043;-79
2022/03/21 06:52:54;;;;;;;67.97;29.02;;;;;;;;;;4995850;28;20078;-79
2022/03/21 06:55:20;;;;;;;65.72;28.75;;;;;;;;;;5013166;28;20054;-78
2022/03/21 06:57:47;;;;;;;62.15;28.42;;;;;;;;;;4995704;28;20054;-78
2022/03/21 07:00:14;;;;;;;61.53;28.05;;;;;;;;;;4992856;28;20066;-80
2022/03/21 07:02:41;;;;;;;59.35;29.45;;;;;;;;;;4992568;28;20054;-78
2022/03/21 07:05:08;;;;;;;66.05;28.55;;;;;;;;;;4994870;28;20086;-78
2022/03/21 07:07:34;;;;;;;61.88;28.58;;;;;;;;;;4996732;28;20502;-79
2022/03/21 07:10:01;;;;;;;60.75;28.08;;;;;;;;;;4992517;28;20058;-79
2022/03/21 07:12:27;;;;;;;61.97;28.25;;;;;;;;;;4989491;28;20055;-79
2022/03/21 07:14:54;;;;;;;59.60;29.55;;;;;;;;;;4991857;28;20047;-80
2022/03/21 07:17:20;;;;;;;65.03;28.73;;;;;;;;;;4992412;28;20077;-78
2022/03/21 07:19:47;;;;;;;56.90;26.88;;;;;;;;;;4992557;28;20059;-79
2022/03/21 07:22:15;;;;;;;69.65;28.75;;;;;;;;;;4998675;28;20059;-79
2022/03/21 07:24:41;;;;;;;60.90;29.17;;;;;;;;;;4999513;28;20051;-79
2022/03/21 07:27:08;;;;;;;57.55;27.58;;;;;;;;;;5005763;28;20043;-78
2022/03/21 07:29:34;;;;;;;59.75;28.75;;;;;;;;;;4996172;28;20043;-78
2022/03/21 07:32:00;;;;;;;60.70;27.95;;;;;;;;;;5003484;28;20051;-79
2022/03/21 07:34:28;;;;;;;58.92;26.70;;;;;;;;;;5003359;28;20027;-78
2022/03/21 07:36:55;;;;;;;53.50;25.75;;;;;;;;;;5021898;28;20110;-78
2022/03/21 07:39:22;;;;;;;60.65;27.55;;;;;;;;;;5002189;28;20054;-78
2022/03/21 07:41:48;;;;;;;52.70;25.88;;;;;;;;;;5002294;28;20078;-78
2022/03/21 07:47:17;;;;;;;61.42;28.30;;;;;;;;;;5002768;28;20051;-78
2022/03/21 07:47:22;;;;;;;57.58;25.92;;;;;;;;;;5016403;28;20193;-78
2022/03/21 07:49:50;;;;;;;59.72;26.45;;;;;;;;;;5005342;28;20054;-79
2022/03/21 07:52:18;;;;;;;47.72;23.90;;;;;;;;;;5017580;28;20078;-78
2022/03/21 07:54:51;;;;;;;58.40;26.60;;;;;;;;;;5002575;28;20035;-80
2022/03/21 07:57:18;;;;;;;45.92;23.17;;;;;;;;;;5001783;28;20103;-79
2022/03/21 07:59:44;;;;;;;46.92;23.23;;;;;;;;;;5000982;28;20059;-79
2022/03/21 08:02:11;;;;;;;49.45;21.92;;;;;;;;;;5002046;28;20055;-79
2022/03/21 08:04:37;;;;;;;44.13;21.38;;;;;;;;;;5002323;28;20040;-79
2022/03/21 08:07:07;;;;;;;44.38;22.15;;;;;;;;;;5035248;28;20146;-79
2022/03/21 08:09:33;;;;;;;44.78;21.33;;;;;;;;;;5001201;28;20055;-80
2022/03/21 08:12:02;;;;;;;36.67;19.90;;;;;;;;;;5000809;28;20057;-79
2022/03/21 08:14:29;;;;;;;41.33;20.40;;;;;;;;;;5001255;28;20570;-79
2022/03/21 08:16:56;;;;;;;39.33;20.10;;;;;;;;;;5001750;28;20081;-80
2022/03/21 08:19:24;;;;;;;38.05;19.58;;;;;;;;;;5003191;28;20059;-79
2022/03/21 08:21:53;;;;;;;39.20;17.95;;;;;;;;;;5015540;28;20033;-79
2022/03/21 08:24:22;;;;;;;32.92;18.38;;;;;;;;;;5003906;28;20049;-79
2022/03/21 08:26:50;;;;;;;36.28;18.67;;;;;;;;;;4998024;28;20113;-80
2022/03/21 08:29:17;;;;;;;34.85;17.10;;;;;;;;;;5005461;28;20078;-80
2022/03/21 08:31:43;;;;;;;36.28;18.40;;;;;;;;;;5004402;28;20055;-79
2022/03/21 08:34:10;;;;;;;34.55;17.98;;;;;;;;;;5005571;28;20077;-80
2022/03/21 08:36:36;;;;;;;33.03;17.55;;;;;;;;;;5003289;28;20137;-80
2022/03/21 08:39:03;;;;;;;33.45;17.67;;;;;;;;;;5011183;28;20047;-80
2022/03/21 08:41:29;;;;;;;34.03;18.45;;;;;;;;;;5003191;28;20711;-79
2022/03/21 08:43:56;;;;;;;31.98;17.67;;;;;;;;;;5002383;28;20041;-80
2022/03/21 08:46:22;;;;;;;31.60;17.65;;;;;;;;;;5004433;28;20078;-80
2022/03/21 08:52:13;;;;;;;32.05;16.90;;;;;;;;;;5006284;28;20051;-81
2022/03/21 08:54:57;;;;;;;32.80;16.48;;;;;;;;;;4993198;28;20027;-81
2022/03/21 08:57:23;;;;;;;28.92;16.70;;;;;;;;;;5004716;28;20233;-80
2022/03/21 08:59:52;;;;;;;31.50;16.80;;;;;;;;;;5005638;28;20050;-79
2022/03/21 09:02:20;;;;;;;30.35;17.08;;;;;;;;;;5009806;28;20095;-80
2022/03/21 09:04:46;;;;;;;30.60;17.52;;;;;;;;;;5008261;28;20055;-79
2022/03/21 09:07:15;;;;;;;30.88;15.73;;;;;;;;;;5008355;28;20057;-79
2022/03/21 09:09:42;;;;;;;30.30;15.85;;;;;;;;;;5000112;28;20054;-79
2022/03/21 09:12:12;;;;;;;27.27;15.55;;;;;;;;;;5010880;28;20055;-78
2022/03/21 09:14:40;;;;;;;30.27;14.70;;;;;;;;;;5020107;28;20038;-79
2022/03/21 09:17:07;;;;;;;25.60;15.18;;;;;;;;;;5008593;28;20118;-80
2022/03/21 09:19:34;;;;;;;26.27;14.02;;;;;;;;;;5006909;28;20081;-80
2022/03/21 09:22:01;;;;;;;27.75;15.05;;;;;;;;;;5022297;28;20054;-79
2022/03/21 09:24:29;;;;;;;26.08;14.95;;;;;;;;;;5008024;28;20102;-79
2022/03/21 09:26:56;;;;;;;22.65;13.75;;;;;;;;;;5008956;28;20054;-79
2022/03/21 09:29:23;;;;;;;23.65;14.23;;;;;;;;;;5009314;28;20057;-79
2022/03/21 09:31:50;;;;;;;27.48;14.77;;;;;;;;;;5008510;28;20055;-79
2022/03/21 09:34:16;;;;;;;27.98;15.02;;;;;;;;;;4999358;28;20102;-82
2022/03/21 09:36:44;;;;;;;23.63;13.55;;;;;;;;;;5007496;28;20051;-79
2022/03/21 09:39:12;;;;;;;23.60;12.80;;;;;;;;;;5006853;28;20105;-80
2022/03/21 09:41:39;;;;;;;23.63;12.27;;;;;;;;;;5007541;28;20043;-80
2022/03/21 09:44:10;;;;;;;23.92;12.38;;;;;;;;;;5008658;28;20043;-79
2022/03/21 09:46:41;;;;;;;21.05;12.60;;;;;;;;;;5011812;28;20054;-81
2022/03/21 09:49:16;;;;;;;25.67;12.43;;;;;;;;;;5004194;28;20067;-80
2022/03/21 09:51:57;;;;;;;;;;;;;;;;;;;;;
2022/03/21 09:54:27;;;;;;;25.67;13.13;;;;;;;;;;5005782;28;20047;-81
2022/03/21 09:56:55;;;;;;;21.27;11.90;;;;;;;;;;5006791;28;20054;-80
2022/03/21 09:59:23;;;;;;;20.83;11.63;;;;;;;;;;5006254;28;20063;-79
2022/03/21 10:02:03;;;;;;;18.70;10.95;;;;;;;;;;5007522;28;20039;-80
2022/03/21 10:04:33;;;;;;;18.40;11.18;;;;;;;;;;5001922;28;20058;-80
2022/03/21 10:07:00;;;;;;;19.42;10.95;;;;;;;;;;5013598;28;20050;-78
2022/03/21 10:09:29;;;;;;;17.90;10.30;;;;;;;;;;5008176;28;20043;-79
2022/03/21 10:11:59;;;;;;;18.50;10.82;;;;;;;;;;5005949;28;20405;-79
2022/03/21 10:14:32;;;;;;;20.58;11.13;;;;;;;;;;5014855;28;20050;-80
2022/03/21 10:17:02;;;;;;;22.75;10.82;;;;;;;;;;5009264;28;20057;-80
2022/03/21 10:19:47;;;;;;;19.00;10.77;;;;;;;;;;5004238;28;20063;-80
2022/03/21 10:22:17;;;;;;;21.05;11.23;;;;;;;;;;5003602;28;20430;-79
2022/03/21 10:24:51;;;;;;;21.27;10.68;;;;;;;;;;5003295;28;20155;-79
2022/03/21 10:27:31;;;;;;;19.65;10.35;;;;;;;;;;5006996;28;20047;-80
2022/03/21 10:30:00;;;;;;;24.58;11.23;;;;;;;;;;5021849;28;20070;-80
2022/03/21 10:32:33;;;;;;;20.98;11.07;;;;;;;;;;5018985;28;20054;-80
2022/03/21 10:35:01;;;;;;;19.67;10.38;;;;;;;;;;5002592;28;20051;-80
2022/03/21 10:37:39;;;;;;;19.90;10.18;;;;;;;;;;5005941;28;20058;-80
2022/03/21 10:40:15;;;;;;;24.20;10.68;;;;;;;;;;4999706;28;20035;-80
2022/03/21 10:43:00;;;;;;;19.17;11.45;;;;;;;;;;5012244;28;20048;-80
2022/03/21 10:45:38;;;;;;;18.38;11.15;;;;;;;;;;5022098;28;20047;-80
2022/03/21 10:48:09;;;;;;;18.50;10.23;;;;;;;;;;5006191;28;20864;-79
2022/03/21 10:50:35;;;;;;;;;;;;;;;;;;5003252;28;20046;-81
2022/03/21 10:53:09;;;;;;;17.95;10.07;;;;;;;;;;5001776;28;42271;-80
2022/03/21 10:55:36;;;;;;;20.35;11.05;;;;;;;;;;5003322;28;20133;-79
2022/03/21 10:58:02;;;;;;;21.63;10.63;;;;;;;;;;5002628;28;20039;-79
2022/03/21 11:00:29;;;;;;;18.35;10.60;;;;;;;;;;5005174;28;20065;-81
2022/03/21 11:02:58;;;;;;;18.20;10.85;;;;;;;;;;4998057;28;20054;-79
2022/03/21 11:05:26;;;;;;;21.25;10.52;;;;;;;;;;5004508;28;20063;-80
2022/03/21 11:07:55;;;;;;;19.60;10.68;;;;;;;;;;5004268;28;20058;-80
2022/03/21 11:10:23;;;;;;;21.17;10.95;;;;;;;;;;5005159;28;20067;-79
2022/03/21 11:12:49;;;;;;;20.10;10.75;;;;;;;;;;5003178;28;20971;-80
2022/03/21 11:15:16;;;;;;;18.75;10.70;;;;;;;;;;5005738;28;20058;-80
2022/03/21 11:17:43;;;;;;;20.30;11.35;;;;;;;;;;5002923;28;20038;-80
2022/03/21 11:20:10;;;;;;;18.80;11.05;;;;;;;;;;5004831;28;20062;-80
2022/03/21 11:22:37;;;;;;;22.30;10.50;;;;;;;;;;5004984;28;20083;-81
2022/03/21 11:25:04;;;;;;;17.63;10.90;;;;;;;;;;5010931;28;20050;-81
2022/03/21 11:27:43;;;;;;;19.83;11.55;;;;;;;;;;5006265;28;20129;-80
2022/03/21 11:30:28;;;;;;;20.73;10.93;;;;;;;;;;5019434;28;20107;-83
2022/03/21 11:33:04;;;;;;;19.50;11.25;;;;;;;;;;4994801;28;20829;-82
2022/03/21 11:35:32;;;;;;;19.70;11.25;;;;;;;;;;5017671;28;20066;-79
2022/03/21 11:38:34;;;;;;;21.80;12.02;;;;;;;;;;5002896;28;20797;-79
2022/03/21 11:41:10;;;;;;;18.10;11.07;;;;;;;;;;4984305;28;20042;-79
2022/03/21 11:43:37;;;;;;;20.92;11.32;;;;;;;;;;5014805;28;20084;-78
2022/03/21 11:46:25;;;;;;;23.33;11.20;;;;;;;;;;5003236;28;20890;-80
2022/03/21 11:48:53;;;;;;;22.13;11.45;;;;;;;;;;5003229;28;20051;-80
2022/03/21 11:51:19;;;;;;;20.45;10.65;;;;;;;;;;5007492;28;20062;-79
2022/03/21 11:53:49;;;;;;;18.73;10.20;;;;;;;;;;5003029;28;20031;-79
2022/03/21 11:56:17;;;;;;;18.23;10.93;;;;;;;;;;5003419;28;20055;-79
2022/03/21 11:58:53;;;;;;;20.33;11.40;;;;;;;;;;5004440;28;20047;-79
2022/03/21 12:01:28;;;;;;;18.33;10.50;;;;;;;;;;5002766;28;20079;-80
2022/03/21 12:03:55;;;;;;;21.20;11.25;;;;;;;;;;5006587;28;20055;-79
2022/03/21 12:06:30;;;;;;;20.23;10.60;;;;;;;;;;5008481;28;20065;-79
2022/03/21 12:08:59;;;;;;;18.48;11.23;;;;;;;;;;5008778;28;20818;-82
2022/03/21 12:11:38;;;;;;;19.77;11.35;;;;;;;;;;5029433;28;20046;-80
2022/03/21 12:14:20;;;;;;;18.73;10.90;;;;;;;;;;5014571;28;20110;-81
2022/03/21 12:16:47;;;;;;;17.90;10.60;;;;;;;;;;5016412;28;20051;-82
2022/03/21 12:19:13;;;;;;;20.33;10.80;;;;;;;;;;5009121;28;20063;-82
2022/03/21 12:21:39;;;;;;;18.50;11.35;;;;;;;;;;5012361;28;20051;-83
2022/03/21 12:24:13;;;;;;;20.15;11.80;;;;;;;;;;5008244;28;20055;-82
2022/03/21 12:26:52;;;;;;;19.77;11.63;;;;;;;;;;5026221;28;20039;-82
2022/03/21 12:29:34;;;;;;;21.80;11.63;;;;;;;;;;5011590;28;20043;-82
2022/03/21 12:32:20;;;;;;;25.58;11.38;;;;;;;;;;5011483;28;20039;-81
2022/03/21 12:34:46;;;;;;;24.17;11.85;;;;;;;;;;5013110;28;20059;-82
2022/03/21 12:37:24;;;;;;;18.88;10.77;;;;;;;;;;5010233;28;20927;-82
2022/03/21 12:39:55;;;;;;;21.23;11.85;;;;;;;;;;5009023;28;20031;-82
2022/03/21 12:42:22;;;;;;;27.70;11.75;;;;;;;;;;5009129;28;21255;-81
2022/03/21 12:44:48;;;;;;;20.98;11.55;;;;;;;;;;5009305;28;20051;-83
2022/03/21 12:47:17;;;;;;;25.70;12.20;;;;;;;;;;5008897;28;20066;-82
2022/03/21 12:49:50;;;;;;;18.98;12.10;;;;;;;;;;5010538;28;20051;-82
2022/03/21 12:52:28;;;;;;;22.98;12.23;;;;;;;;;;5008408;28;20086;-82
2022/03/21 12:54:56;;;;;;;20.45;12.40;;;;;;;;;;5006902;28;20039;-82
2022/03/21 12:57:23;;;;;;;20.48;12.27;;;;;;;;;;5010064;28;20055;-81
2022/03/21 12:59:50;;;;;;;20.80;13.02;;;;;;;;;;5009142;28;20473;-82
2022/03/21 13:02:23;;;;;;;20.25;12.68;;;;;;;;;;5007734;28;20055;-81
2022/03/21 13:10:36;;;;;;;19.45;11.70;;;;;;;;;;5008582;28;20047;-81
2022/03/21 13:13:04;;;;;;;20.23;11.77;;;;;;;;;;5013171;28;20105;-79
2022/03/21 13:15:33;;;;;;;21.00;12.27;;;;;;;;;;5019049;28;20114;-79
2022/03/21 13:18:03;;;;;;;23.15;12.38;;;;;;;;;;5014841;28;20070;-79
2022/03/21 13:20:38;;;;;;;21.30;12.02;;;;;;;;;;5010071;28;20190;-81
2022/03/21 13:23:05;;;;;;;21.95;11.43;;;;;;;;;;5008862;28;20047;-79
2022/03/21 13:25:40;;;;;;;23.83;11.73;;;;;;;;;;5007582;28;20052;-79
2022/03/21 13:28:24;;;;;;;22.63;11.45;;;;;;;;;;5010938;28;20071;-80
2022/03/21 13:31:01;;;;;;;22.17;11.20;;;;;;;;;;5003779;28;20062;-81
2022/03/21 13:33:29;;;;;;;19.65;11.48;;;;;;;;;;5012466;28;20110;-80
2022/03/21 13:36:05;;;;;;;21.92;12.63;;;;;;;;;;5008514;28;20094;-80
2022/03/21 13:38:33;;;;;;;20.15;11.95;;;;;;;;;;5024838;28;20118;-80
2022/03/21 13:41:15;;;;;;;22.67;12.00;;;;;;;;;;5008404;28;20059;-81
2022/03/21 13:43:43;;;;;;;23.05;12.40;;;;;;;;;;5006075;28;20471;-80
2022/03/21 13:46:09;;;;;;;22.50;12.75;;;;;;;;;;5005997;28;20050;-81
2022/03/21 13:48:38;;;;;;;20.95;12.40;;;;;;;;;;5005433;28;20046;-81
2022/03/21 13:51:07;;;;;;;20.33;12.00;;;;;;;;;;5005585;28;20046;-80
2022/03/21 13:53:40;;;;;;;21.40;12.48;;;;;;;;;;5004752;28;20054;-80
2022/03/21 13:56:07;;;;;;;20.52;12.32;;;;;;;;;;5008647;28;20045;-80
2022/03/21 13:58:37;;;;;;;21.50;12.65;;;;;;;;;;5004422;28;20406;-80
2022/03/21 14:01:17;;;;;;;20.20;11.70;;;;;;;;;;5005968;28;20086;-81
2022/03/21 14:03:46;;;;;;;20.02;12.52;;;;;;;;;;5006058;28;20071;-79
2022/03/21 14:06:13;;;;;;;20.27;12.88;;;;;;;;;;5004313;28;20047;-81
2022/03/21 14:08:39;;;;;;;21.40;12.88;;;;;;;;;;5005015;28;20047;-79
2022/03/21 14:11:08;;;;;;;23.10;12.32;;;;;;;;;;5000960;28;20043;-81
2022/03/21 14:13:37;;;;;;;21.65;12.23;;;;;;;;;;4997223;28;20066;-80
2022/03/21 14:16:04;;;;;;;23.13;12.80;;;;;;;;;;5002532;28;20062;-80
2022/03/21 14:18:32;;;;;;;20.83;12.35;;;;;;;;;;5003309;28;20043;-80
2022/03/21 14:21:08;;;;;;;23.85;12.73;;;;;;;;;;5002538;28;20058;-80
2022/03/21 14:23:41;;;;;;;22.92;12.45;;;;;;;;;;5009133;28;20785;-80
2022/03/21 14:28:53;;;;;;;24.70;13.18;;;;;;;;;;5004448;28;20082;-81
2022/03/21 14:31:57;;;;;;;21.33;12.70;;;;;;;;;;5003234;28;20062;-82
2022/03/21 14:34:30;;;;;;;24.10;12.15;;;;;;;;;;5004266;28;20051;-80
2022/03/21 14:37:00;;;;;;;24.08;13.07;;;;;;;;;;4994958;28;20115;-80
2022/03/21 14:39:28;;;;;;;21.90;12.77;;;;;;;;;;5001901;28;20071;-80
2022/03/21 14:41:57;;;;;;;22.80;12.70;;;;;;;;;;5007826;28;20271;-80
2022/03/21 14:44:24;;;;;;;26.75;13.55;;;;;;;;;;5006031;28;20058;-81
2022/03/21 14:46:51;;;;;;;21.02;12.73;;;;;;;;;;5002481;28;20058;-80
2022/03/21 14:49:18;;;;;;;25.65;14.10;;;;;;;;;;5002197;28;20100;-81
2022/03/21 14:51:45;;;;;;;24.15;13.48;;;;;;;;;;5000709;28;20066;-81
2022/03/21 14:54:12;;;;;;;23.88;13.88;;;;;;;;;;4997706;28;20054;-81